sensor_id;sensor_type;location;lat;lon;timestamp;temperature;humidity
61004;DHT22;46889;37.310;13.582;2023-07-13T00:01:12;25.90;99.90
61004;DHT22;46889;37.310;13.582;2023-07-13T00:03:38;25.90;99.90
61004;DHT22;46889;37.310;13.582;2023-07-13T00:06:06;25.90;99.90
61004;DHT22;46889;37.310;13.582;2023-07-13T00:08:32;25.90;99.90
61004;DHT22;46889;37.310;13.582;2023-07-13T00:10:58;25.90;99.90
61004;DHT22;46889;37.310;13.582;2023-07-13T00:13:24;25.90;99.90
61004;DHT22;46889;37.310;13.582;2023-07-13T00:15:50;26.00;99.90
61004;DHT22;46889;37.310;13.582;2023-07-13T00:18:16;26.00;99.90
61004;DHT22;46889;37.310;13.582;2023-07-13T00:20:42;26.00;99.90
61004;DHT22;46889;37.310;13.582;2023-07-13T00:23:08;26.00;99.90
61004;DHT22;46889;37.310;13.582;2023-07-13T00:25:34;26.00;99.90
61004;DHT22;46889;37.310;13.582;2023-07-13T00:28:00;26.10;99.90
61004;DHT22;46889;37.310;13.582;2023-07-13T00:30:26;26.10;99.90
61004;DHT22;46889;37.310;13.582;2023-07-13T00:32:52;26.00;99.90
61004;DHT22;46889;37.310;13.582;2023-07-13T00:35:18;26.00;99.90
61004;DHT22;46889;37.310;13.582;2023-07-13T00:37:44;26.10;99.90
61004;DHT22;46889;37.310;13.582;2023-07-13T00:40:13;26.00;99.90
61004;DHT22;46889;37.310;13.582;2023-07-13T00:42:40;26.10;99.90
61004;DHT22;46889;37.310;13.582;2023-07-13T00:47:38;26.10;99.90
61004;DHT22;46889;37.310;13.582;2023-07-13T00:50:06;26.10;99.90
61004;DHT22;46889;37.310;13.582;2023-07-13T00:52:33;26.00;99.90
61004;DHT22;46889;37.310;13.582;2023-07-13T00:55:00;26.00;99.90
61004;DHT22;46889;37.310;13.582;2023-07-13T00:57:27;26.00;99.90
61004;DHT22;46889;37.310;13.582;2023-07-13T00:59:54;26.00;99.90
61004;DHT22;46889;37.310;13.582;2023-07-13T01:02:21;26.00;99.90
61004;DHT22;46889;37.310;13.582;2023-07-13T01:04:47;25.90;99.90
61004;DHT22;46889;37.310;13.582;2023-07-13T01:07:13;26.00;99.90
61004;DHT22;46889;37.310;13.582;2023-07-13T01:09:39;25.90;99.90
61004;DHT22;46889;37.310;13.582;2023-07-13T01:12:05;25.90;99.90
61004;DHT22;46889;37.310;13.582;2023-07-13T01:14:32;25.90;99.90
61004;DHT22;46889;37.310;13.582;2023-07-13T01:16:58;25.90;99.90
61004;DHT22;46889;37.310;13.582;2023-07-13T01:21:55;25.80;99.90
61004;DHT22;46889;37.310;13.582;2023-07-13T01:24:21;25.90;99.90
61004;DHT22;46889;37.310;13.582;2023-07-13T01:26:47;25.90;99.90
61004;DHT22;46889;37.310;13.582;2023-07-13T01:29:12;25.90;99.90
61004;DHT22;46889;37.310;13.582;2023-07-13T01:31:38;25.80;99.90
61004;DHT22;46889;37.310;13.582;2023-07-13T01:34:04;25.80;99.90
61004;DHT22;46889;37.310;13.582;2023-07-13T01:36:30;25.80;99.90
61004;DHT22;46889;37.310;13.582;2023-07-13T01:38:56;25.80;99.90
61004;DHT22;46889;37.310;13.582;2023-07-13T01:41:22;25.70;99.90
61004;DHT22;46889;37.310;13.582;2023-07-13T01:43:48;25.70;99.90
61004;DHT22;46889;37.310;13.582;2023-07-13T01:46:13;25.70;99.90
61004;DHT22;46889;37.310;13.582;2023-07-13T01:48:39;25.70;99.90
61004;DHT22;46889;37.310;13.582;2023-07-13T01:51:05;25.70;99.90
61004;DHT22;46889;37.310;13.582;2023-07-13T01:53:31;25.80;99.90
61004;DHT22;46889;37.310;13.582;2023-07-13T01:55:57;25.80;99.90
61004;DHT22;46889;37.310;13.582;2023-07-13T01:58:28;25.80;99.90
61004;DHT22;46889;37.310;13.582;2023-07-13T02:00:54;25.80;99.90
61004;DHT22;46889;37.310;13.582;2023-07-13T02:03:20;25.80;99.90
61004;DHT22;46889;37.310;13.582;2023-07-13T02:05:46;25.80;99.90
61004;DHT22;46889;37.310;13.582;2023-07-13T02:08:12;25.70;99.90
61004;DHT22;46889;37.310;13.582;2023-07-13T02:10:37;25.60;99.90
61004;DHT22;46889;37.310;13.582;2023-07-13T02:13:05;25.60;99.90
61004;DHT22;46889;37.310;13.582;2023-07-13T02:15:31;25.50;99.90
61004;DHT22;46889;37.310;13.582;2023-07-13T02:17:57;25.50;99.90
61004;DHT22;46889;37.310;13.582;2023-07-13T02:20:24;25.40;99.90
61004;DHT22;46889;37.310;13.582;2023-07-13T02:22:50;25.50;99.90
61004;DHT22;46889;37.310;13.582;2023-07-13T02:25:16;25.40;99.90
61004;DHT22;46889;37.310;13.582;2023-07-13T02:27:42;25.40;99.90
61004;DHT22;46889;37.310;13.582;2023-07-13T02:30:08;25.40;99.90
61004;DHT22;46889;37.310;13.582;2023-07-13T02:32:34;25.30;99.90
61004;DHT22;46889;37.310;13.582;2023-07-13T02:35:00;25.30;99.90
61004;DHT22;46889;37.310;13.582;2023-07-13T02:37:26;25.30;99.90
61004;DHT22;46889;37.310;13.582;2023-07-13T02:39:52;25.40;99.90
61004;DHT22;46889;37.310;13.582;2023-07-13T02:42:18;25.30;99.90
61004;DHT22;46889;37.310;13.582;2023-07-13T02:44:44;25.30;99.90
61004;DHT22;46889;37.310;13.582;2023-07-13T02:47:09;25.30;99.90
61004;DHT22;46889;37.310;13.582;2023-07-13T02:49:35;25.30;99.90
61004;DHT22;46889;37.310;13.582;2023-07-13T02:52:01;25.20;99.90
61004;DHT22;46889;37.310;13.582;2023-07-13T02:54:27;25.20;99.90
61004;DHT22;46889;37.310;13.582;2023-07-13T02:56:53;25.20;99.90
61004;DHT22;46889;37.310;13.582;2023-07-13T02:59:19;25.20;99.90
61004;DHT22;46889;37.310;13.582;2023-07-13T03:01:45;25.10;99.90
61004;DHT22;46889;37.310;13.582;2023-07-13T03:04:11;25.10;99.90
61004;DHT22;46889;37.310;13.582;2023-07-13T03:06:37;25.10;99.90
61004;DHT22;46889;37.310;13.582;2023-07-13T03:09:03;25.00;99.90
61004;DHT22;46889;37.310;13.582;2023-07-13T03:11:29;25.00;99.90
61004;DHT22;46889;37.310;13.582;2023-07-13T03:13:55;25.00;99.90
61004;DHT22;46889;37.310;13.582;2023-07-13T03:16:21;25.00;99.90
61004;DHT22;46889;37.310;13.582;2023-07-13T03:18:47;25.10;99.90
61004;DHT22;46889;37.310;13.582;2023-07-13T03:21:13;25.20;99.90
61004;DHT22;46889;37.310;13.582;2023-07-13T03:23:39;25.20;99.90
61004;DHT22;46889;37.310;13.582;2023-07-13T03:26:07;25.20;99.90
61004;DHT22;46889;37.310;13.582;2023-07-13T03:28:33;25.30;99.90
61004;DHT22;46889;37.310;13.582;2023-07-13T03:31:03;25.30;99.90
61004;DHT22;46889;37.310;13.582;2023-07-13T03:33:29;25.20;99.90
61004;DHT22;46889;37.310;13.582;2023-07-13T03:35:56;25.10;99.90
61004;DHT22;46889;37.310;13.582;2023-07-13T03:38:21;25.00;99.90
61004;DHT22;46889;37.310;13.582;2023-07-13T03:40:47;25.00;99.90
61004;DHT22;46889;37.310;13.582;2023-07-13T03:43:13;25.10;99.90
61004;DHT22;46889;37.310;13.582;2023-07-13T03:45:39;25.20;99.90
61004;DHT22;46889;37.310;13.582;2023-07-13T03:48:05;25.30;99.90
61004;DHT22;46889;37.310;13.582;2023-07-13T03:50:31;25.30;99.90
61004;DHT22;46889;37.310;13.582;2023-07-13T03:52:59;25.30;99.90
61004;DHT22;46889;37.310;13.582;2023-07-13T03:55:25;25.30;99.90
61004;DHT22;46889;37.310;13.582;2023-07-13T03:57:53;25.30;99.90
61004;DHT22;46889;37.310;13.582;2023-07-13T04:00:19;25.20;99.90
61004;DHT22;46889;37.310;13.582;2023-07-13T04:02:45;25.10;99.90
61004;DHT22;46889;37.310;13.582;2023-07-13T04:05:13;25.00;99.90
61004;DHT22;46889;37.310;13.582;2023-07-13T04:07:39;24.90;99.90
61004;DHT22;46889;37.310;13.582;2023-07-13T04:10:05;24.90;99.90
61004;DHT22;46889;37.310;13.582;2023-07-13T04:12:31;24.80;99.90
61004;DHT22;46889;37.310;13.582;2023-07-13T04:14:57;24.80;99.90
61004;DHT22;46889;37.310;13.582;2023-07-13T04:17:22;24.70;99.90
61004;DHT22;46889;37.310;13.582;2023-07-13T04:19:48;24.80;99.90
61004;DHT22;46889;37.310;13.582;2023-07-13T04:22:14;24.80;99.90
61004;DHT22;46889;37.310;13.582;2023-07-13T04:24:40;24.80;99.90
61004;DHT22;46889;37.310;13.582;2023-07-13T04:27:06;24.80;99.90
61004;DHT22;46889;37.310;13.582;2023-07-13T04:29:32;24.90;99.90
61004;DHT22;46889;37.310;13.582;2023-07-13T04:31:58;25.00;99.90
61004;DHT22;46889;37.310;13.582;2023-07-13T04:34:24;24.90;99.90
61004;DHT22;46889;37.310;13.582;2023-07-13T04:36:50;25.10;99.90
61004;DHT22;46889;37.310;13.582;2023-07-13T04:39:16;25.30;99.90
61004;DHT22;46889;37.310;13.582;2023-07-13T04:41:41;25.20;99.90
61004;DHT22;46889;37.310;13.582;2023-07-13T04:44:07;25.30;99.90
61004;DHT22;46889;37.310;13.582;2023-07-13T04:46:33;25.30;99.90
61004;DHT22;46889;37.310;13.582;2023-07-13T04:48:59;25.40;99.90
61004;DHT22;46889;37.310;13.582;2023-07-13T04:51:26;25.40;99.90
61004;DHT22;46889;37.310;13.582;2023-07-13T04:53:52;25.60;99.90
61004;DHT22;46889;37.310;13.582;2023-07-13T04:56:17;25.70;99.90
61004;DHT22;46889;37.310;13.582;2023-07-13T04:58:45;25.80;99.90
61004;DHT22;46889;37.310;13.582;2023-07-13T05:01:10;25.90;99.90
61004;DHT22;46889;37.310;13.582;2023-07-13T05:03:36;26.00;99.90
61004;DHT22;46889;37.310;13.582;2023-07-13T05:06:03;26.00;99.90
61004;DHT22;46889;37.310;13.582;2023-07-13T05:08:29;25.80;99.90
61004;DHT22;46889;37.310;13.582;2023-07-13T05:10:55;25.60;99.90
61004;DHT22;46889;37.310;13.582;2023-07-13T05:13:21;25.70;99.90
61004;DHT22;46889;37.310;13.582;2023-07-13T05:15:52;25.70;99.90
61004;DHT22;46889;37.310;13.582;2023-07-13T05:18:20;25.90;99.90
61004;DHT22;46889;37.310;13.582;2023-07-13T05:20:46;26.10;99.90
61004;DHT22;46889;37.310;13.582;2023-07-13T05:23:12;26.40;99.90
61004;DHT22;46889;37.310;13.582;2023-07-13T05:25:37;26.80;99.90
61004;DHT22;46889;37.310;13.582;2023-07-13T05:28:03;27.40;99.90
61004;DHT22;46889;37.310;13.582;2023-07-13T05:30:29;27.20;99.90
61004;DHT22;46889;37.310;13.582;2023-07-13T05:32:55;27.20;99.90
61004;DHT22;46889;37.310;13.582;2023-07-13T05:35:21;27.30;99.90
61004;DHT22;46889;37.310;13.582;2023-07-13T05:37:46;27.20;99.90
61004;DHT22;46889;37.310;13.582;2023-07-13T05:40:12;27.50;99.90
61004;DHT22;46889;37.310;13.582;2023-07-13T05:42:38;27.60;99.90
61004;DHT22;46889;37.310;13.582;2023-07-13T05:45:04;27.80;99.90
61004;DHT22;46889;37.310;13.582;2023-07-13T05:47:30;27.80;99.90
61004;DHT22;46889;37.310;13.582;2023-07-13T05:49:56;28.00;99.90
61004;DHT22;46889;37.310;13.582;2023-07-13T05:52:22;28.30;99.90
61004;DHT22;46889;37.310;13.582;2023-07-13T05:54:47;28.80;99.90
61004;DHT22;46889;37.310;13.582;2023-07-13T05:57:13;29.40;99.90
61004;DHT22;46889;37.310;13.582;2023-07-13T05:59:39;30.30;99.90
61004;DHT22;46889;37.310;13.582;2023-07-13T06:02:05;31.60;99.90
61004;DHT22;46889;37.310;13.582;2023-07-13T06:04:31;32.70;99.90
61004;DHT22;46889;37.310;13.582;2023-07-13T06:06:57;33.00;99.90
61004;DHT22;46889;37.310;13.582;2023-07-13T06:09:22;33.50;99.90
61004;DHT22;46889;37.310;13.582;2023-07-13T06:11:48;33.50;99.90
61004;DHT22;46889;37.310;13.582;2023-07-13T06:14:14;34.30;99.90
61004;DHT22;46889;37.310;13.582;2023-07-13T06:16:40;35.80;99.90
61004;DHT22;46889;37.310;13.582;2023-07-13T06:19:06;36.80;99.90
61004;DHT22;46889;37.310;13.582;2023-07-13T06:21:32;36.60;99.90
61004;DHT22;46889;37.310;13.582;2023-07-13T06:23:58;37.80;99.90
61004;DHT22;46889;37.310;13.582;2023-07-13T06:26:24;38.60;99.90
61004;DHT22;46889;37.310;13.582;2023-07-13T06:28:50;38.60;99.90
61004;DHT22;46889;37.310;13.582;2023-07-13T06:31:16;38.50;99.90
61004;DHT22;46889;37.310;13.582;2023-07-13T06:33:43;37.10;99.90
61004;DHT22;46889;37.310;13.582;2023-07-13T06:36:09;36.90;99.90
61004;DHT22;46889;37.310;13.582;2023-07-13T06:38:35;36.10;99.90
61004;DHT22;46889;37.310;13.582;2023-07-13T06:41:01;36.60;99.90
61004;DHT22;46889;37.310;13.582;2023-07-13T06:43:27;37.00;99.90
61004;DHT22;46889;37.310;13.582;2023-07-13T06:45:55;38.00;99.90
61004;DHT22;46889;37.310;13.582;2023-07-13T06:48:21;38.90;99.90
61004;DHT22;46889;37.310;13.582;2023-07-13T06:50:47;38.40;99.90
61004;DHT22;46889;37.310;13.582;2023-07-13T06:53:14;39.00;99.90
61004;DHT22;46889;37.310;13.582;2023-07-13T06:55:40;39.60;99.90
61004;DHT22;46889;37.310;13.582;2023-07-13T06:58:06;40.10;99.90
61004;DHT22;46889;37.310;13.582;2023-07-13T07:00:32;40.20;99.90
61004;DHT22;46889;37.310;13.582;2023-07-13T07:02:57;39.60;99.90
61004;DHT22;46889;37.310;13.582;2023-07-13T07:05:23;38.90;99.90
61004;DHT22;46889;37.310;13.582;2023-07-13T07:07:49;40.10;99.90
61004;DHT22;46889;37.310;13.582;2023-07-13T07:10:15;39.80;99.90
61004;DHT22;46889;37.310;13.582;2023-07-13T07:12:41;41.00;99.90
61004;DHT22;46889;37.310;13.582;2023-07-13T07:15:07;41.90;99.90
61004;DHT22;46889;37.310;13.582;2023-07-13T07:17:33;41.70;99.90
61004;DHT22;46889;37.310;13.582;2023-07-13T07:19:59;41.20;99.90
61004;DHT22;46889;37.310;13.582;2023-07-13T07:22:24;40.20;99.90
61004;DHT22;46889;37.310;13.582;2023-07-13T07:24:53;39.90;99.90
61004;DHT22;46889;37.310;13.582;2023-07-13T07:27:19;39.00;99.90
61004;DHT22;46889;37.310;13.582;2023-07-13T07:29:45;38.00;99.90
61004;DHT22;46889;37.310;13.582;2023-07-13T07:32:11;37.70;99.90
61004;DHT22;46889;37.310;13.582;2023-07-13T07:34:39;36.50;99.90
61004;DHT22;46889;37.310;13.582;2023-07-13T07:37:05;35.90;99.90
61004;DHT22;46889;37.310;13.582;2023-07-13T07:39:31;35.10;99.90
61004;DHT22;46889;37.310;13.582;2023-07-13T07:41:57;35.20;99.90
61004;DHT22;46889;37.310;13.582;2023-07-13T07:44:23;35.80;99.90
61004;DHT22;46889;37.310;13.582;2023-07-13T07:46:49;35.40;99.90
61004;DHT22;46889;37.310;13.582;2023-07-13T07:49:15;35.70;99.90
61004;DHT22;46889;37.310;13.582;2023-07-13T07:51:41;36.10;99.90
61004;DHT22;46889;37.310;13.582;2023-07-13T07:54:06;35.70;99.90
61004;DHT22;46889;37.310;13.582;2023-07-13T07:56:32;35.10;99.90
61004;DHT22;46889;37.310;13.582;2023-07-13T07:58:58;34.70;99.90
61004;DHT22;46889;37.310;13.582;2023-07-13T08:01:24;34.50;99.90
61004;DHT22;46889;37.310;13.582;2023-07-13T08:03:50;34.10;99.90
61004;DHT22;46889;37.310;13.582;2023-07-13T08:06:16;34.50;99.90
61004;DHT22;46889;37.310;13.582;2023-07-13T08:08:43;35.00;99.90
61004;DHT22;46889;37.310;13.582;2023-07-13T08:11:09;35.50;99.90
61004;DHT22;46889;37.310;13.582;2023-07-13T08:13:36;35.70;99.90
61004;DHT22;46889;37.310;13.582;2023-07-13T08:16:03;35.80;99.90
61004;DHT22;46889;37.310;13.582;2023-07-13T08:18:29;35.30;99.90
61004;DHT22;46889;37.310;13.582;2023-07-13T08:20:55;35.20;99.90
61004;DHT22;46889;37.310;13.582;2023-07-13T08:23:22;35.10;99.90
61004;DHT22;46889;37.310;13.582;2023-07-13T08:25:52;35.40;99.90
61004;DHT22;46889;37.310;13.582;2023-07-13T08:28:19;35.20;99.90
61004;DHT22;46889;37.310;13.582;2023-07-13T08:30:45;35.30;99.90
61004;DHT22;46889;37.310;13.582;2023-07-13T08:33:18;35.40;99.90
61004;DHT22;46889;37.310;13.582;2023-07-13T08:35:47;35.30;99.90
61004;DHT22;46889;37.310;13.582;2023-07-13T08:38:13;34.80;99.90
61004;DHT22;46889;37.310;13.582;2023-07-13T08:40:39;35.00;99.90
61004;DHT22;46889;37.310;13.582;2023-07-13T08:43:06;34.70;99.90
61004;DHT22;46889;37.310;13.582;2023-07-13T08:48:38;33.70;99.90
61004;DHT22;46889;37.310;13.582;2023-07-13T08:52:08;33.40;99.90
61004;DHT22;46889;37.310;13.582;2023-07-13T08:54:03;34.00;99.90
61004;DHT22;46889;37.310;13.582;2023-07-13T08:56:31;34.60;99.90
61004;DHT22;46889;37.310;13.582;2023-07-13T08:58:58;33.90;99.90
61004;DHT22;46889;37.310;13.582;2023-07-13T09:01:46;33.60;99.90
61004;DHT22;46889;37.310;13.582;2023-07-13T09:04:20;33.80;99.90
61004;DHT22;46889;37.310;13.582;2023-07-13T09:09:20;33.70;99.90
61004;DHT22;46889;37.310;13.582;2023-07-13T09:11:50;34.00;99.90
61004;DHT22;46889;37.310;13.582;2023-07-13T09:17:03;33.60;99.90
61004;DHT22;46889;37.310;13.582;2023-07-13T09:19:30;33.70;99.90
61004;DHT22;46889;37.310;13.582;2023-07-13T09:21:58;33.40;99.90
61004;DHT22;46889;37.310;13.582;2023-07-13T09:24:29;33.70;99.90
61004;DHT22;46889;37.310;13.582;2023-07-13T09:26:57;33.50;99.90
61004;DHT22;46889;37.310;13.582;2023-07-13T09:29:30;33.80;99.90
61004;DHT22;46889;37.310;13.582;2023-07-13T09:31:59;34.00;99.90
61004;DHT22;46889;37.310;13.582;2023-07-13T09:34:27;33.70;99.90
61004;DHT22;46889;37.310;13.582;2023-07-13T09:36:56;33.50;99.90
61004;DHT22;46889;37.310;13.582;2023-07-13T09:42:07;33.50;99.90
61004;DHT22;46889;37.310;13.582;2023-07-13T09:44:38;33.20;99.90
61004;DHT22;46889;37.310;13.582;2023-07-13T09:47:17;33.30;99.90
61004;DHT22;46889;37.310;13.582;2023-07-13T09:49:43;33.00;99.90
61004;DHT22;46889;37.310;13.582;2023-07-13T09:52:14;33.00;99.90
61004;DHT22;46889;37.310;13.582;2023-07-13T09:54:44;32.90;99.90
61004;DHT22;46889;37.310;13.582;2023-07-13T09:57:14;32.90;99.90
61004;DHT22;46889;37.310;13.582;2023-07-13T09:59:43;32.80;99.90
61004;DHT22;46889;37.310;13.582;2023-07-13T10:02:31;32.80;99.90
61004;DHT22;46889;37.310;13.582;2023-07-13T10:05:05;33.10;99.90
61004;DHT22;46889;37.310;13.582;2023-07-13T10:07:32;33.10;99.90
61004;DHT22;46889;37.310;13.582;2023-07-13T10:09:59;32.90;99.90
61004;DHT22;46889;37.310;13.582;2023-07-13T10:12:29;32.70;99.90
61004;DHT22;46889;37.310;13.582;2023-07-13T10:14:58;32.70;99.90
61004;DHT22;46889;37.310;13.582;2023-07-13T10:17:31;32.70;99.90
61004;DHT22;46889;37.310;13.582;2023-07-13T10:20:02;32.30;99.90
61004;DHT22;46889;37.310;13.582;2023-07-13T10:25:14;32.00;99.90
61004;DHT22;46889;37.310;13.582;2023-07-13T10:27:41;31.80;99.90
61004;DHT22;46889;37.310;13.582;2023-07-13T10:32:45;32.10;99.90
61004;DHT22;46889;37.310;13.582;2023-07-13T10:35:15;32.00;99.90
61004;DHT22;46889;37.310;13.582;2023-07-13T10:37:50;32.20;99.90
61004;DHT22;46889;37.310;13.582;2023-07-13T10:40:54;32.00;99.90
61004;DHT22;46889;37.310;13.582;2023-07-13T10:43:18;32.00;99.90
61004;DHT22;46889;37.310;13.582;2023-07-13T10:45:45;32.00;99.90
61004;DHT22;46889;37.310;13.582;2023-07-13T10:48:12;32.00;99.90
61004;DHT22;46889;37.310;13.582;2023-07-13T10:50:40;32.20;99.90
61004;DHT22;46889;37.310;13.582;2023-07-13T10:53:20;32.20;99.90
61004;DHT22;46889;37.310;13.582;2023-07-13T10:58:18;32.30;99.90
61004;DHT22;46889;37.310;13.582;2023-07-13T11:00:53;32.20;99.90
61004;DHT22;46889;37.310;13.582;2023-07-13T11:03:22;32.20;99.90
61004;DHT22;46889;37.310;13.582;2023-07-13T11:05:48;32.30;99.90
61004;DHT22;46889;37.310;13.582;2023-07-13T11:08:19;32.50;99.90
61004;DHT22;46889;37.310;13.582;2023-07-13T11:10:50;32.50;99.90
61004;DHT22;46889;37.310;13.582;2023-07-13T11:16:00;32.70;99.90
61004;DHT22;46889;37.310;13.582;2023-07-13T11:18:26;32.30;99.90
61004;DHT22;46889;37.310;13.582;2023-07-13T11:20:52;32.40;99.90
61004;DHT22;46889;37.310;13.582;2023-07-13T11:23:38;32.30;99.90
61004;DHT22;46889;37.310;13.582;2023-07-13T11:26:36;32.20;99.90
61004;DHT22;46889;37.310;13.582;2023-07-13T11:28:53;32.10;99.90
61004;DHT22;46889;37.310;13.582;2023-07-13T11:31:18;32.40;99.90
61004;DHT22;46889;37.310;13.582;2023-07-13T11:36:15;32.10;99.90
61004;DHT22;46889;37.310;13.582;2023-07-13T11:38:42;32.40;99.90
61004;DHT22;46889;37.310;13.582;2023-07-13T11:43:37;32.50;99.90
61004;DHT22;46889;37.310;13.582;2023-07-13T11:46:13;32.30;99.90
61004;DHT22;46889;37.310;13.582;2023-07-13T11:48:39;32.70;99.90
61004;DHT22;46889;37.310;13.582;2023-07-13T11:51:05;32.70;99.90
61004;DHT22;46889;37.310;13.582;2023-07-13T11:53:37;32.60;99.90
61004;DHT22;46889;37.310;13.582;2023-07-13T11:56:03;32.50;99.90
61004;DHT22;46889;37.310;13.582;2023-07-13T11:58:30;32.70;99.90
61004;DHT22;46889;37.310;13.582;2023-07-13T12:00:57;32.50;99.90
61004;DHT22;46889;37.310;13.582;2023-07-13T12:03:24;32.40;99.90
61004;DHT22;46889;37.310;13.582;2023-07-13T12:06:06;32.20;99.90
61004;DHT22;46889;37.310;13.582;2023-07-13T12:08:45;32.30;99.90
61004;DHT22;46889;37.310;13.582;2023-07-13T12:11:15;32.20;99.90
61004;DHT22;46889;37.310;13.582;2023-07-13T12:13:41;32.40;99.90
61004;DHT22;46889;37.310;13.582;2023-07-13T12:16:11;32.40;99.90
61004;DHT22;46889;37.310;13.582;2023-07-13T12:18:36;32.40;99.90
61004;DHT22;46889;37.310;13.582;2023-07-13T12:21:02;32.30;99.90
61004;DHT22;46889;37.310;13.582;2023-07-13T12:25:56;32.40;99.90
61004;DHT22;46889;37.310;13.582;2023-07-13T12:28:28;32.70;99.90
61004;DHT22;46889;37.310;13.582;2023-07-13T12:31:03;32.90;99.90
61004;DHT22;46889;37.310;13.582;2023-07-13T12:33:30;33.10;99.90
61004;DHT22;46889;37.310;13.582;2023-07-13T12:35:58;33.00;99.90
61004;DHT22;46889;37.310;13.582;2023-07-13T12:38:27;32.80;99.90
61004;DHT22;46889;37.310;13.582;2023-07-13T12:40:53;33.00;99.90
61004;DHT22;46889;37.310;13.582;2023-07-13T12:43:22;32.80;99.90
61004;DHT22;46889;37.310;13.582;2023-07-13T12:45:58;32.90;99.90
61004;DHT22;46889;37.310;13.582;2023-07-13T12:48:24;32.60;99.90
61004;DHT22;46889;37.310;13.582;2023-07-13T12:50:51;32.20;99.90
61004;DHT22;46889;37.310;13.582;2023-07-13T12:53:19;32.50;99.90
61004;DHT22;46889;37.310;13.582;2023-07-13T12:55:47;32.70;99.90
61004;DHT22;46889;37.310;13.582;2023-07-13T12:58:25;32.70;99.90
61004;DHT22;46889;37.310;13.582;2023-07-13T13:00:51;32.50;99.90
61004;DHT22;46889;37.310;13.582;2023-07-13T13:03:24;32.30;99.90
61004;DHT22;46889;37.310;13.582;2023-07-13T13:05:56;32.50;99.90
61004;DHT22;46889;37.310;13.582;2023-07-13T13:08:22;32.60;99.90
61004;DHT22;46889;37.310;13.582;2023-07-13T13:10:47;32.60;99.90
61004;DHT22;46889;37.310;13.582;2023-07-13T13:13:13;32.40;99.90
61004;DHT22;46889;37.310;13.582;2023-07-13T13:15:39;32.50;99.90
61004;DHT22;46889;37.310;13.582;2023-07-13T13:18:10;32.50;99.90
61004;DHT22;46889;37.310;13.582;2023-07-13T13:20:38;32.50;99.90
61004;DHT22;46889;37.310;13.582;2023-07-13T13:23:04;32.40;99.90
61004;DHT22;46889;37.310;13.582;2023-07-13T13:25:30;32.30;99.90
61004;DHT22;46889;37.310;13.582;2023-07-13T13:27:56;32.10;99.90
61004;DHT22;46889;37.310;13.582;2023-07-13T13:30:22;32.30;99.90
61004;DHT22;46889;37.310;13.582;2023-07-13T13:32:48;32.30;99.90
61004;DHT22;46889;37.310;13.582;2023-07-13T13:35:17;32.50;99.90
61004;DHT22;46889;37.310;13.582;2023-07-13T13:37:44;32.50;99.90
61004;DHT22;46889;37.310;13.582;2023-07-13T13:40:14;32.30;99.90
61004;DHT22;46889;37.310;13.582;2023-07-13T13:42:40;32.50;99.90
61004;DHT22;46889;37.310;13.582;2023-07-13T13:45:07;32.40;99.90
61004;DHT22;46889;37.310;13.582;2023-07-13T13:47:33;32.40;99.90
61004;DHT22;46889;37.310;13.582;2023-07-13T13:50:02;32.30;99.90
61004;DHT22;46889;37.310;13.582;2023-07-13T13:52:27;32.40;99.90
61004;DHT22;46889;37.310;13.582;2023-07-13T13:54:53;32.20;99.90
61004;DHT22;46889;37.310;13.582;2023-07-13T13:57:24;32.30;99.90
61004;DHT22;46889;37.310;13.582;2023-07-13T13:59:51;32.30;99.90
61004;DHT22;46889;37.310;13.582;2023-07-13T14:02:22;32.30;99.90
61004;DHT22;46889;37.310;13.582;2023-07-13T14:04:58;32.20;99.90
61004;DHT22;46889;37.310;13.582;2023-07-13T14:07:25;32.20;99.90
61004;DHT22;46889;37.310;13.582;2023-07-13T14:09:55;32.00;99.90
61004;DHT22;46889;37.310;13.582;2023-07-13T14:12:22;31.80;99.90
61004;DHT22;46889;37.310;13.582;2023-07-13T14:14:50;31.90;99.90
61004;DHT22;46889;37.310;13.582;2023-07-13T14:17:22;31.80;99.90
61004;DHT22;46889;37.310;13.582;2023-07-13T14:19:52;31.90;99.90
61004;DHT22;46889;37.310;13.582;2023-07-13T14:22:23;32.00;99.90
61004;DHT22;46889;37.310;13.582;2023-07-13T14:24:49;32.00;99.90
61004;DHT22;46889;37.310;13.582;2023-07-13T14:27:15;31.80;99.90
61004;DHT22;46889;37.310;13.582;2023-07-13T14:29:41;31.80;99.90
61004;DHT22;46889;37.310;13.582;2023-07-13T14:32:10;31.80;99.90
61004;DHT22;46889;37.310;13.582;2023-07-13T14:34:37;31.90;99.90
61004;DHT22;46889;37.310;13.582;2023-07-13T14:37:03;31.80;99.90
61004;DHT22;46889;37.310;13.582;2023-07-13T14:39:29;31.70;99.90
61004;DHT22;46889;37.310;13.582;2023-07-13T14:41:56;31.80;99.90
61004;DHT22;46889;37.310;13.582;2023-07-13T14:44:24;31.60;99.90
61004;DHT22;46889;37.310;13.582;2023-07-13T14:46:51;31.50;99.90
61004;DHT22;46889;37.310;13.582;2023-07-13T14:51:59;31.60;99.90
61004;DHT22;46889;37.310;13.582;2023-07-13T14:54:25;31.60;99.90
61004;DHT22;46889;37.310;13.582;2023-07-13T14:56:51;31.50;99.90
61004;DHT22;46889;37.310;13.582;2023-07-13T14:59:17;31.50;99.90
61004;DHT22;46889;37.310;13.582;2023-07-13T15:01:46;31.60;99.90
61004;DHT22;46889;37.310;13.582;2023-07-13T15:04:12;31.70;99.90
61004;DHT22;46889;37.310;13.582;2023-07-13T15:06:52;31.70;99.90
61004;DHT22;46889;37.310;13.582;2023-07-13T15:09:18;31.60;99.90
61004;DHT22;46889;37.310;13.582;2023-07-13T15:11:44;31.50;99.90
61004;DHT22;46889;37.310;13.582;2023-07-13T15:14:10;31.50;99.90
61004;DHT22;46889;37.310;13.582;2023-07-13T15:16:36;31.30;99.90
61004;DHT22;46889;37.310;13.582;2023-07-13T15:19:01;31.20;99.90
61004;DHT22;46889;37.310;13.582;2023-07-13T15:21:27;31.30;99.90
61004;DHT22;46889;37.310;13.582;2023-07-13T15:24:00;31.20;99.90
61004;DHT22;46889;37.310;13.582;2023-07-13T15:26:26;31.10;99.90
61004;DHT22;46889;37.310;13.582;2023-07-13T15:28:51;31.00;99.90
61004;DHT22;46889;37.310;13.582;2023-07-13T15:33:44;31.10;99.90
61004;DHT22;46889;37.310;13.582;2023-07-13T15:36:10;31.20;99.90
61004;DHT22;46889;37.310;13.582;2023-07-13T15:38:36;31.30;99.90
61004;DHT22;46889;37.310;13.582;2023-07-13T15:41:10;31.30;99.90
61004;DHT22;46889;37.310;13.582;2023-07-13T15:43:41;31.10;99.90
61004;DHT22;46889;37.310;13.582;2023-07-13T15:46:06;31.10;99.90
61004;DHT22;46889;37.310;13.582;2023-07-13T15:48:32;31.00;99.90
61004;DHT22;46889;37.310;13.582;2023-07-13T15:51:00;30.80;99.90
61004;DHT22;46889;37.310;13.582;2023-07-13T15:53:30;30.80;99.90
61004;DHT22;46889;37.310;13.582;2023-07-13T15:55:56;30.70;99.90